createdAt,value
2023-03-17T00:00:45.523Z,7.57
2023-03-17T00:03:23.653Z,7.22
2023-03-17T00:05:51.639Z,10.85
2023-03-17T00:08:23.195Z,8.90
2023-03-17T00:10:53.346Z,7.13
2023-03-17T00:13:20.529Z,6.72
2023-03-17T00:15:52.603Z,6.50
2023-03-17T00:18:20.600Z,5.40
2023-03-17T00:20:48.597Z,5.88
2023-03-17T00:23:21.671Z,7.32
2023-03-17T00:25:48.913Z,7.28
2023-03-17T00:28:19.479Z,6.32
2023-03-17T00:30:47.862Z,9.02
2023-03-17T00:33:17.000Z,7.50
2023-03-17T00:35:46.601Z,7.22
2023-03-17T00:43:12.776Z,6.57
2023-03-17T00:45:44.262Z,6.55
2023-03-17T00:48:19.805Z,7.43
2023-03-17T00:50:48.751Z,7.85
2023-03-17T00:53:18.943Z,6.45
2023-03-17T00:55:46.942Z,8.05
2023-03-17T00:58:27.201Z,7.57
2023-03-17T01:00:55.231Z,6.75
2023-03-17T01:03:23.218Z,6.82
2023-03-17T01:05:51.637Z,10.63
2023-03-17T01:08:19.434Z,6.55
2023-03-17T01:10:46.439Z,7.22
2023-03-17T01:13:14.660Z,8.38
2023-03-17T01:15:47.271Z,9.20
2023-03-17T01:18:16.868Z,6.65
2023-03-17T01:23:17.820Z,8.35
2023-03-17T01:25:45.520Z,8.95
2023-03-17T01:28:18.117Z,9.75
2023-03-17T01:30:47.074Z,9.70
2023-03-17T01:33:14.778Z,7.38
2023-03-17T01:35:43.959Z,9.80
2023-03-17T01:38:12.004Z,7.47
2023-03-17T01:40:46.943Z,9.70
2023-03-17T01:43:30.908Z,8.35
2023-03-17T01:46:20.982Z,7.90
2023-03-17T01:49:19.670Z,7.28
2023-03-17T01:51:52.711Z,9.15
2023-03-17T01:54:27.268Z,8.43
2023-03-17T01:56:57.546Z,9.98
2023-03-17T01:59:28.844Z,8.25
2023-03-17T02:02:01.517Z,8.43
2023-03-17T02:04:29.839Z,8.50
2023-03-17T02:06:58.926Z,8.07
2023-03-17T02:09:28.001Z,10.10
2023-03-17T02:11:56.517Z,9.57
2023-03-17T02:14:23.890Z,9.48
2023-03-17T02:16:51.019Z,8.15
2023-03-17T02:19:18.113Z,7.78
2023-03-17T02:21:50.173Z,8.35
2023-03-17T02:24:26.754Z,9.45
2023-03-17T02:26:58.427Z,10.43
2023-03-17T02:29:25.440Z,7.75
2023-03-17T02:31:52.450Z,11.15
2023-03-17T02:34:21.917Z,10.35
2023-03-17T02:36:49.066Z,11.52
2023-03-17T02:39:16.524Z,10.38
2023-03-17T02:41:43.588Z,12.18
2023-03-17T02:44:11.034Z,8.75
2023-03-17T02:46:37.977Z,8.90
2023-03-17T02:49:06.119Z,9.18
2023-03-17T02:51:33.222Z,10.80
2023-03-17T02:54:00.484Z,10.32
2023-03-17T02:56:27.472Z,10.02
2023-03-17T02:58:54.419Z,8.93
2023-03-17T03:01:21.447Z,11.30
2023-03-17T03:03:48.636Z,10.10
2023-03-17T03:06:47.771Z,12.05
2023-03-17T03:09:15.421Z,10.02
2023-03-17T03:11:42.987Z,9.00
2023-03-17T03:14:11.137Z,9.75
2023-03-17T03:16:38.489Z,8.15
2023-03-17T03:19:05.893Z,8.35
2023-03-17T03:21:32.872Z,7.88
2023-03-17T03:23:59.860Z,13.27
2023-03-17T03:26:27.368Z,9.20
2023-03-17T03:28:54.427Z,11.27
2023-03-17T03:31:21.775Z,9.57
2023-03-17T03:33:48.904Z,7.13
2023-03-17T03:36:15.859Z,8.48
2023-03-17T03:38:42.899Z,11.38
2023-03-17T03:41:09.977Z,13.95
2023-03-17T03:43:37.268Z,9.38
2023-03-17T03:46:05.126Z,9.88
2023-03-17T03:48:32.257Z,8.48
2023-03-17T03:51:01.008Z,8.15
2023-03-17T03:53:29.180Z,6.00
2023-03-17T03:55:56.998Z,10.45
2023-03-17T03:58:23.978Z,13.63
2023-03-17T04:00:51.198Z,9.30
2023-03-17T04:03:18.360Z,10.02
2023-03-17T04:05:45.529Z,10.52
2023-03-17T04:08:12.493Z,7.55
2023-03-17T04:10:39.507Z,9.05
2023-03-17T04:13:06.732Z,10.75
2023-03-17T04:15:33.855Z,10.77
2023-03-17T04:18:01.221Z,10.70
2023-03-17T04:20:28.674Z,9.80
2023-03-17T04:22:56.258Z,6.68
2023-03-17T04:25:23.209Z,9.10
2023-03-17T04:27:50.239Z,10.25
2023-03-17T04:30:17.871Z,9.48
2023-03-17T04:32:46.462Z,13.10
2023-03-17T04:35:19.123Z,10.07
2023-03-17T04:37:46.724Z,10.45
2023-03-17T04:40:15.515Z,11.07
2023-03-17T04:42:42.828Z,12.40
2023-03-17T04:45:11.947Z,10.68
2023-03-17T04:47:39.544Z,8.13
2023-03-17T04:50:08.984Z,10.68
2023-03-17T04:52:37.103Z,12.30
2023-03-17T04:55:05.634Z,10.30
2023-03-17T04:57:32.786Z,8.18
2023-03-17T04:59:59.766Z,9.52
2023-03-17T05:02:26.789Z,7.28
2023-03-17T05:04:53.742Z,10.07
2023-03-17T05:07:20.685Z,11.98
2023-03-17T05:09:48.158Z,10.35
2023-03-17T05:12:15.548Z,9.95
2023-03-17T05:14:42.532Z,14.13
2023-03-17T05:17:09.528Z,10.90
2023-03-17T05:19:36.567Z,10.18
2023-03-17T05:22:03.536Z,13.95
2023-03-17T05:24:30.702Z,14.07
2023-03-17T05:26:57.778Z,11.55
2023-03-17T05:29:24.820Z,12.38
2023-03-17T05:31:52.110Z,17.08
2023-03-17T05:34:19.095Z,12.15
2023-03-17T05:36:46.607Z,8.23
2023-03-17T05:39:14.655Z,10.50
2023-03-17T05:41:41.784Z,10.18
2023-03-17T05:44:08.943Z,11.65
2023-03-17T05:46:36.556Z,11.20
2023-03-17T05:49:03.954Z,8.50
2023-03-17T05:51:30.913Z,9.27
2023-03-17T05:53:58.448Z,14.85
2023-03-17T05:56:27.332Z,9.32
2023-03-17T05:59:01.821Z,10.77
2023-03-17T06:01:29.659Z,8.68
2023-03-17T06:03:57.029Z,8.93
2023-03-17T06:06:26.994Z,10.13
2023-03-17T06:08:53.912Z,11.02
2023-03-17T06:11:21.666Z,11.10
2023-03-17T06:13:49.260Z,8.63
2023-03-17T06:16:16.739Z,8.32
2023-03-17T06:18:43.919Z,8.70
2023-03-17T06:21:10.925Z,9.75
2023-03-17T06:23:39.159Z,10.43
2023-03-17T06:26:06.526Z,9.50
2023-03-17T06:28:33.577Z,9.57
2023-03-17T06:31:00.611Z,9.20
2023-03-17T06:33:28.343Z,13.48
2023-03-17T06:35:55.329Z,10.00
2023-03-17T06:38:22.417Z,8.38
2023-03-17T06:40:49.378Z,9.13
2023-03-17T06:43:17.626Z,9.93
2023-03-17T06:45:44.567Z,10.48
2023-03-17T06:52:30.553Z,7.38
2023-03-17T06:54:57.528Z,12.48
2023-03-17T06:57:24.435Z,11.38
2023-03-17T06:59:51.382Z,8.63
2023-03-17T07:02:18.377Z,7.95
2023-03-17T07:04:45.501Z,9.32
2023-03-17T07:07:12.440Z,7.10
2023-03-17T07:09:40.242Z,10.65
2023-03-17T07:12:07.621Z,9.52
2023-03-17T07:14:36.788Z,11.48
2023-03-17T07:17:05.190Z,9.45
2023-03-17T07:19:32.899Z,10.98
2023-03-17T07:21:59.896Z,9.13
2023-03-17T07:24:27.136Z,9.98
2023-03-17T07:26:54.155Z,19.45
2023-03-17T07:29:22.830Z,15.65
2023-03-17T07:31:50.137Z,15.30
2023-03-17T07:34:17.961Z,13.70
2023-03-17T07:36:44.996Z,10.65
2023-03-17T07:39:12.984Z,9.10
2023-03-17T07:41:40.300Z,13.30
2023-03-17T07:44:11.511Z,11.25
2023-03-17T07:46:39.088Z,11.90
2023-03-17T07:49:06.373Z,10.63
2023-03-17T07:51:33.486Z,9.82
2023-03-17T07:54:06.587Z,9.70
2023-03-17T07:56:33.722Z,9.68
2023-03-17T07:59:00.713Z,13.32
2023-03-17T08:01:28.785Z,11.32
2023-03-17T08:03:56.694Z,10.38
2023-03-17T08:06:27.344Z,12.38
2023-03-17T08:08:55.056Z,9.40
2023-03-17T08:11:23.451Z,6.38
2023-03-17T08:13:50.553Z,10.18
2023-03-17T08:16:17.661Z,8.60
2023-03-17T08:18:44.873Z,8.52
2023-03-17T08:21:13.498Z,8.15
2023-03-17T08:23:41.984Z,7.50
2023-03-17T08:26:09.114Z,9.63
2023-03-17T08:28:36.351Z,6.40
2023-03-17T08:31:12.412Z,5.75
2023-03-17T08:33:42.375Z,5.63
2023-03-17T08:36:11.002Z,8.35
2023-03-17T08:38:39.000Z,8.35
2023-03-17T08:41:09.572Z,6.53
2023-03-17T08:43:37.525Z,8.07
2023-03-17T08:46:08.173Z,5.95
2023-03-17T08:48:37.452Z,4.88
2023-03-17T08:51:05.494Z,5.80
2023-03-17T08:53:35.167Z,6.47
2023-03-17T08:58:29.716Z,7.45
2023-03-17T09:01:01.172Z,8.02
2023-03-17T09:03:29.104Z,5.70
2023-03-17T09:05:56.377Z,5.90
2023-03-17T09:08:23.626Z,7.90
2023-03-17T09:10:52.009Z,5.43
2023-03-17T09:13:19.229Z,5.28
2023-03-17T09:15:46.275Z,5.78
2023-03-17T09:18:14.669Z,6.20
2023-03-17T09:20:41.673Z,5.13
2023-03-17T09:23:10.330Z,5.97
2023-03-17T09:25:39.011Z,3.95
2023-03-17T09:28:07.312Z,6.90
2023-03-17T09:30:35.064Z,7.45
2023-03-17T09:33:02.079Z,7.18
2023-03-17T09:35:31.400Z,4.97
2023-03-17T09:37:58.667Z,10.40
2023-03-17T09:40:33.085Z,7.50
2023-03-17T09:43:11.370Z,6.72
2023-03-17T09:45:43.379Z,5.97
2023-03-17T09:48:11.031Z,6.00
2023-03-17T09:50:54.840Z,5.28
2023-03-17T09:53:42.910Z,4.70
2023-03-17T09:56:15.669Z,5.38
2023-03-17T09:58:53.741Z,5.07
2023-03-17T10:01:22.081Z,5.55
2023-03-17T10:03:50.997Z,5.35
2023-03-17T10:06:39.002Z,5.97
2023-03-17T10:09:27.284Z,4.80
2023-03-17T10:12:15.929Z,4.55
2023-03-17T10:14:51.270Z,4.53
2023-03-17T10:17:26.400Z,3.90
2023-03-17T10:20:05.846Z,6.00
2023-03-17T10:23:01.389Z,4.40
2023-03-17T10:25:34.731Z,4.82
2023-03-17T10:28:16.656Z,4.53
2023-03-17T10:30:44.075Z,5.97
2023-03-17T10:33:11.533Z,4.63
2023-03-17T10:35:39.580Z,4.25
2023-03-17T10:38:19.137Z,4.00
2023-03-17T10:41:16.853Z,3.90
2023-03-17T10:43:50.856Z,5.80
2023-03-17T10:46:22.181Z,3.28
2023-03-17T10:49:06.185Z,2.97
2023-03-17T10:51:36.967Z,6.32
2023-03-17T10:54:25.520Z,6.18
2023-03-17T10:57:06.756Z,4.15
2023-03-17T10:59:43.397Z,2.95
2023-03-17T11:02:36.012Z,4.13
2023-03-17T11:05:23.622Z,3.05
2023-03-17T11:07:57.117Z,3.85
2023-03-17T11:10:27.524Z,5.32
2023-03-17T11:13:02.135Z,5.13
2023-03-17T11:15:37.263Z,5.20
2023-03-17T11:18:13.629Z,5.43
2023-03-17T11:20:47.269Z,8.20
2023-03-17T11:23:57.689Z,4.22
2023-03-17T11:26:27.770Z,3.60
2023-03-17T11:29:20.856Z,3.97
2023-03-17T11:31:53.726Z,4.25
2023-03-17T11:34:35.847Z,3.05
2023-03-17T11:37:20.801Z,3.22
2023-03-17T11:39:47.775Z,4.20
2023-03-17T11:42:26.349Z,2.75
2023-03-17T11:45:02.655Z,5.18
2023-03-17T11:48:02.625Z,4.65
2023-03-17T11:51:08.346Z,2.45
2023-03-17T11:53:45.031Z,5.15
2023-03-17T11:56:28.100Z,4.40
2023-03-17T11:59:02.036Z,3.70
2023-03-17T12:01:39.858Z,6.25
2023-03-17T12:04:20.584Z,4.13
2023-03-17T12:06:56.068Z,3.00
2023-03-17T12:09:44.143Z,3.70
2023-03-17T12:12:16.069Z,4.95
2023-03-17T12:14:46.453Z,5.15
2023-03-17T12:17:25.176Z,5.00
2023-03-17T12:20:09.544Z,3.88
2023-03-17T12:23:16.386Z,5.20
2023-03-17T12:26:06.923Z,5.63
2023-03-17T12:28:46.594Z,2.38
2023-03-17T12:31:19.861Z,2.63
2023-03-17T12:34:05.573Z,3.40
2023-03-17T12:36:34.608Z,3.75
2023-03-17T12:39:26.012Z,2.40
2023-03-17T12:42:22.941Z,3.20
2023-03-17T12:45:04.514Z,4.05
2023-03-17T12:47:34.469Z,3.88
2023-03-17T12:50:39.001Z,2.20
2023-03-17T12:53:31.621Z,3.67
2023-03-17T12:56:07.693Z,2.75
2023-03-17T12:58:40.998Z,3.45
2023-03-17T13:01:32.595Z,2.10
2023-03-17T13:04:27.381Z,2.22
2023-03-17T13:07:12.511Z,2.78
2023-03-17T13:09:53.985Z,4.10
2023-03-17T13:12:40.062Z,4.25
2023-03-17T13:15:25.698Z,5.43
2023-03-17T13:18:16.254Z,3.17
2023-03-17T13:20:56.765Z,2.90
2023-03-17T13:23:58.454Z,3.10
2023-03-17T13:26:55.304Z,2.33
2023-03-17T13:29:35.229Z,2.80
2023-03-17T13:32:17.215Z,2.75
2023-03-17T13:35:15.972Z,3.67
2023-03-17T13:38:48.553Z,1.60
2023-03-17T13:41:42.629Z,3.83
2023-03-17T13:44:12.987Z,2.00
2023-03-17T13:46:42.692Z,3.20
2023-03-17T13:49:27.617Z,2.83
2023-03-17T13:52:01.718Z,2.38
2023-03-17T13:54:28.862Z,4.68
2023-03-17T13:56:59.411Z,4.57
2023-03-17T13:59:53.854Z,3.35
2023-03-17T14:02:23.846Z,3.38
2023-03-17T14:04:53.673Z,2.22
2023-03-17T14:09:55.836Z,5.20
2023-03-17T14:12:46.488Z,3.75
2023-03-17T14:15:20.744Z,2.70
2023-03-17T14:18:21.799Z,1.98
2023-03-17T14:20:56.366Z,2.55
2023-03-17T14:23:24.517Z,2.03
2023-03-17T14:25:58.982Z,2.53
2023-03-17T14:28:32.315Z,3.33
2023-03-17T14:31:01.390Z,2.78
2023-03-17T14:33:34.659Z,3.72
2023-03-17T14:36:04.317Z,3.17
2023-03-17T14:41:05.697Z,1.58
2023-03-17T14:43:37.684Z,3.92
2023-03-17T14:46:07.721Z,2.42
2023-03-17T14:48:40.408Z,3.05
2023-03-17T14:51:29.208Z,2.65
2023-03-17T14:54:13.920Z,2.80
2023-03-17T14:56:44.277Z,1.80
2023-03-17T14:59:28.925Z,2.08
2023-03-17T15:02:02.095Z,2.97
2023-03-17T15:04:32.538Z,3.00
2023-03-17T15:07:07.746Z,2.35
2023-03-17T15:09:37.695Z,5.70
2023-03-17T15:12:21.582Z,2.70
2023-03-17T15:14:52.444Z,3.65
2023-03-17T15:17:32.840Z,4.28
2023-03-17T15:20:06.425Z,3.55
2023-03-17T15:22:36.363Z,2.30
2023-03-17T15:25:27.123Z,4.30
2023-03-17T15:27:56.228Z,3.80
2023-03-17T15:30:23.751Z,2.88
2023-03-17T15:33:00.946Z,3.10
2023-03-17T15:35:28.186Z,2.60
2023-03-17T15:37:56.185Z,2.00
2023-03-17T15:40:24.322Z,1.95
2023-03-17T15:42:51.373Z,3.50
2023-03-17T15:45:20.632Z,4.80
2023-03-17T15:47:47.860Z,4.22
2023-03-17T15:50:29.239Z,3.08
2023-03-17T15:52:57.230Z,2.83
2023-03-17T15:55:30.151Z,2.65
2023-03-17T15:58:03.813Z,2.50
2023-03-17T16:00:34.080Z,2.30
2023-03-17T16:03:15.811Z,3.85
2023-03-17T16:05:43.598Z,2.55
2023-03-17T16:08:44.115Z,3.97
2023-03-17T16:11:19.350Z,4.68
2023-03-17T16:14:24.969Z,3.40
2023-03-17T16:16:51.922Z,3.50
2023-03-17T16:19:22.692Z,3.47
2023-03-17T16:22:34.399Z,2.47
2023-03-17T16:25:02.829Z,4.28
2023-03-17T16:28:02.312Z,4.85
2023-03-17T16:30:33.878Z,4.43
2023-03-17T16:33:36.085Z,5.32
2023-03-17T16:36:03.055Z,3.05
2023-03-17T16:38:32.920Z,5.55
2023-03-17T16:43:38.221Z,5.93
2023-03-17T16:46:07.094Z,2.50
2023-03-17T16:48:34.376Z,3.67
2023-03-17T16:51:01.469Z,2.35
2023-03-17T16:53:28.542Z,2.25
2023-03-17T16:55:55.822Z,3.33
2023-03-17T16:58:34.743Z,3.40
2023-03-17T17:01:06.328Z,2.30
2023-03-17T17:03:33.386Z,2.53
2023-03-17T17:06:00.418Z,2.30
2023-03-17T17:08:27.389Z,4.22
2023-03-17T17:10:54.618Z,11.65
2023-03-17T17:13:21.743Z,17.95
2023-03-17T17:15:49.319Z,27.70
2023-03-17T17:18:20.618Z,29.83
2023-03-17T17:20:48.859Z,22.45
2023-03-17T17:23:19.142Z,15.30
2023-03-17T17:25:46.496Z,17.63
2023-03-17T17:28:18.213Z,21.80
2023-03-17T17:30:47.959Z,32.92
2023-03-17T17:33:45.889Z,28.05
2023-03-17T17:36:15.706Z,27.42
2023-03-17T17:41:11.324Z,10.75
2023-03-17T17:43:38.911Z,9.05
2023-03-17T17:46:12.362Z,8.30
2023-03-17T17:48:39.764Z,12.00
2023-03-17T17:51:06.741Z,11.73
2023-03-17T17:53:33.717Z,9.00
2023-03-17T17:56:01.011Z,7.50
2023-03-17T17:58:30.824Z,6.25
2023-03-17T18:03:26.343Z,5.40
2023-03-17T18:05:56.235Z,8.38
2023-03-17T18:10:52.266Z,36.08
2023-03-17T18:13:50.884Z,29.42
2023-03-17T18:16:19.239Z,30.33
2023-03-17T18:18:47.224Z,28.70
2023-03-17T18:21:14.350Z,28.73
2023-03-17T18:23:46.943Z,25.13
2023-03-17T18:26:15.710Z,18.27
2023-03-17T18:28:43.406Z,19.83
2023-03-17T18:31:14.452Z,18.85
2023-03-17T18:33:42.725Z,11.07
2023-03-17T18:36:19.987Z,14.40
2023-03-17T18:38:47.023Z,8.57
2023-03-17T18:41:14.464Z,10.23
2023-03-17T18:43:43.697Z,8.00
2023-03-17T18:46:12.894Z,8.50
2023-03-17T18:48:40.310Z,9.65
2023-03-17T18:51:07.302Z,7.93
2023-03-17T18:53:35.476Z,7.25
2023-03-17T18:56:02.555Z,9.27
2023-03-17T18:58:29.592Z,9.18
2023-03-17T19:01:01.614Z,10.13
2023-03-17T19:03:29.694Z,7.78
2023-03-17T19:05:56.717Z,8.60
2023-03-17T19:08:23.912Z,7.20
2023-03-17T19:10:50.837Z,8.40
2023-03-17T19:13:17.971Z,7.35
2023-03-17T19:15:44.905Z,8.50
2023-03-17T19:18:12.277Z,10.60
2023-03-17T19:20:39.326Z,11.85
2023-03-17T19:23:07.063Z,9.90
2023-03-17T19:25:34.356Z,11.55
2023-03-17T19:28:03.610Z,10.23
2023-03-17T19:30:45.268Z,9.85
2023-03-17T19:33:14.377Z,12.85
2023-03-17T19:35:44.308Z,12.00
2023-03-17T19:38:11.712Z,14.35
2023-03-17T19:40:39.190Z,13.75
2023-03-17T19:43:06.872Z,11.15
2023-03-17T19:45:33.953Z,12.02
2023-03-17T19:48:01.052Z,11.10
2023-03-17T19:50:28.452Z,9.68
2023-03-17T19:52:55.720Z,6.82
2023-03-17T19:55:27.092Z,10.75
2023-03-17T19:57:54.127Z,9.65
2023-03-17T20:00:22.608Z,6.82
2023-03-17T20:02:50.015Z,8.40
2023-03-17T20:05:17.742Z,6.70
2023-03-17T20:12:04.280Z,6.35
2023-03-17T20:14:31.338Z,6.00
2023-03-17T20:16:58.321Z,6.63
2023-03-17T20:19:26.297Z,6.55
2023-03-17T20:21:53.531Z,7.55
2023-03-17T20:24:20.839Z,7.10
2023-03-17T20:26:49.567Z,7.50
2023-03-17T20:29:17.617Z,12.85
2023-03-17T20:31:44.563Z,18.05
2023-03-17T20:34:11.974Z,14.18
2023-03-17T20:36:42.493Z,16.25
2023-03-17T20:39:13.831Z,14.73
2023-03-17T20:41:41.559Z,13.77
2023-03-17T20:44:08.608Z,15.50
2023-03-17T20:46:36.068Z,10.10
2023-03-17T20:49:04.164Z,11.25
2023-03-17T20:51:32.356Z,10.05
2023-03-17T20:54:00.856Z,10.60
2023-03-17T20:56:29.895Z,7.60
2023-03-17T20:58:58.510Z,8.40
2023-03-17T21:01:26.714Z,18.05
2023-03-17T21:03:53.784Z,21.90
2023-03-17T21:06:20.892Z,13.90
2023-03-17T21:08:52.935Z,14.48
2023-03-17T21:11:23.070Z,10.27
2023-03-17T21:13:50.834Z,10.88
2023-03-17T21:16:20.534Z,9.10
2023-03-17T21:18:48.558Z,9.95
2023-03-17T21:21:16.582Z,14.70
2023-03-17T21:23:44.530Z,11.65
2023-03-17T21:26:12.593Z,9.23
2023-03-17T21:28:41.477Z,10.98
2023-03-17T21:31:09.606Z,10.65
2023-03-17T21:33:37.253Z,12.43
2023-03-17T21:36:05.179Z,12.30
2023-03-17T21:38:32.791Z,12.25
2023-03-17T21:41:30.459Z,10.57
2023-03-17T21:43:58.178Z,10.05
2023-03-17T21:46:26.029Z,11.05
2023-03-17T21:48:54.177Z,18.02
2023-03-17T21:51:21.613Z,17.95
2023-03-17T21:53:48.983Z,14.07
2023-03-17T21:56:17.072Z,12.32
2023-03-17T21:58:44.118Z,11.90
2023-03-17T22:01:12.175Z,11.02
2023-03-17T22:03:40.010Z,13.20
2023-03-17T22:06:11.437Z,11.18
2023-03-17T22:08:38.756Z,11.80
2023-03-17T22:11:11.754Z,8.07
2023-03-17T22:13:39.257Z,13.63
2023-03-17T22:16:06.592Z,10.40
2023-03-17T22:18:34.047Z,9.13
2023-03-17T22:21:08.451Z,11.75
2023-03-17T22:23:41.202Z,10.95
2023-03-17T22:26:11.767Z,10.73
2023-03-17T22:28:39.502Z,10.48
2023-03-17T22:31:19.440Z,7.50
2023-03-17T22:33:48.906Z,6.97
2023-03-17T22:36:16.123Z,8.98
2023-03-17T22:38:43.179Z,10.40
2023-03-17T22:41:14.851Z,9.30
2023-03-17T22:43:42.334Z,5.57
2023-03-17T22:46:11.227Z,6.85
2023-03-17T22:48:40.987Z,8.27
2023-03-17T22:51:14.212Z,5.85
2023-03-17T22:53:41.358Z,4.55
2023-03-17T22:56:11.443Z,4.28
2023-03-17T22:58:39.858Z,5.10
2023-03-17T23:01:07.855Z,6.38
2023-03-17T23:03:35.062Z,4.95
2023-03-17T23:06:03.962Z,5.57
2023-03-17T23:08:35.152Z,4.57
2023-03-17T23:11:05.721Z,7.03
2023-03-17T23:13:33.192Z,5.32
2023-03-17T23:16:00.145Z,8.35
2023-03-17T23:18:27.182Z,5.00
2023-03-17T23:20:54.179Z,6.88
2023-03-17T23:23:21.146Z,6.20
2023-03-17T23:25:48.156Z,7.07
2023-03-17T23:28:15.671Z,4.88
2023-03-17T23:30:44.064Z,6.97
2023-03-17T23:33:11.588Z,5.88
2023-03-17T23:35:38.859Z,4.10
2023-03-17T23:38:06.304Z,5.20
2023-03-17T23:40:34.583Z,3.58
2023-03-17T23:43:02.347Z,3.35
2023-03-17T23:45:29.355Z,5.00
2023-03-17T23:47:57.625Z,4.60
2023-03-17T23:50:24.668Z,3.85
2023-03-17T23:52:51.818Z,8.05
2023-03-17T23:55:19.268Z,6.13
2023-03-17T23:57:46.529Z,5.88
